createdAt,value
2017-02-19T00:01:04.843Z,1021.99
2017-02-19T00:02:13.952Z,1022.05
2017-02-19T00:03:23.803Z,1021.98
2017-02-19T00:04:33.693Z,1021.97
2017-02-19T00:05:42.925Z,1022.01
2017-02-19T00:06:52.056Z,1022.03
2017-02-19T00:08:01.126Z,1021.99
2017-02-19T00:09:10.228Z,1022
2017-02-19T00:10:19.723Z,1022
2017-02-19T00:11:29.243Z,1021.96
2017-02-19T00:12:38.340Z,1022.01
2017-02-19T00:13:47.572Z,1021.98
2017-02-19T00:14:56.632Z,1021.99
2017-02-19T00:16:05.704Z,1022
2017-02-19T00:17:15.168Z,1022
2017-02-19T00:18:24.619Z,1021.96
2017-02-19T00:19:33.689Z,1021.98
2017-02-19T00:20:43.521Z,1021.95
2017-02-19T00:21:52.979Z,1021.91
2017-02-19T00:23:03.191Z,1021.96
2017-02-19T00:24:11.871Z,1021.93
2017-02-19T00:25:20.941Z,1021.98
2017-02-19T00:26:30.010Z,1021.97
2017-02-19T00:27:39.459Z,1021.95
2017-02-19T00:28:48.153Z,1021.94
2017-02-19T00:29:57.981Z,1021.89
2017-02-19T00:31:07.430Z,1021.9
2017-02-19T00:32:16.902Z,1021.91
2017-02-19T00:33:26.726Z,1021.87
2017-02-19T00:34:36.554Z,1021.87
2017-02-19T00:35:46.797Z,1021.87
2017-02-19T00:36:55.861Z,1021.78
2017-02-19T00:38:04.947Z,1021.78
2017-02-19T00:39:13.644Z,1021.78
2017-02-19T00:40:23.087Z,1021.77
2017-02-19T00:41:32.180Z,1021.75
2017-02-19T00:42:41.657Z,1021.73
2017-02-19T00:43:51.121Z,1021.67
2017-02-19T00:45:00.178Z,1021.64
2017-02-19T00:46:10.016Z,1021.65
2017-02-19T00:47:18.713Z,1021.67
2017-02-19T00:48:27.772Z,1021.7
2017-02-19T00:49:37.229Z,1021.67
2017-02-19T00:50:47.457Z,1021.64
2017-02-19T00:51:56.515Z,1021.62
2017-02-19T00:53:05.596Z,1021.65
2017-02-19T00:54:15.045Z,1021.63
2017-02-19T00:55:23.727Z,1021.67
2017-02-19T00:56:33.188Z,1021.63
2017-02-19T00:57:42.280Z,1021.61
2017-02-19T00:58:51.740Z,1021.65
2017-02-19T01:00:00.425Z,1021.58
2017-02-19T01:01:09.516Z,1021.65
2017-02-19T01:02:19.380Z,1021.57
2017-02-19T01:03:28.088Z,1021.57
2017-02-19T01:04:37.531Z,1021.59
2017-02-19T01:05:46.994Z,1021.56
2017-02-19T01:06:56.477Z,1021.58
2017-02-19T01:08:06.686Z,1021.52
2017-02-19T01:09:16.533Z,1021.53
2017-02-19T01:10:26.373Z,1021.56
2017-02-19T01:11:36.604Z,1021.59
2017-02-19T01:12:45.685Z,1021.57
2017-02-19T01:13:56.287Z,1021.56
2017-02-19T01:15:05.746Z,1021.49
2017-02-19T01:16:15.185Z,1021.44
2017-02-19T01:17:24.631Z,1021.4
2017-02-19T01:18:34.485Z,1021.41
2017-02-19T01:19:43.548Z,1021.43
2017-02-19T01:20:52.991Z,1021.44
2017-02-19T01:22:02.443Z,1021.42
2017-02-19T01:23:11.148Z,1021.47
2017-02-19T01:24:20.249Z,1021.42
2017-02-19T01:25:29.323Z,1021.44
2017-02-19T01:26:38.397Z,1021.44
2017-02-19T01:27:47.089Z,1021.47
2017-02-19T01:28:57.321Z,1021.46
2017-02-19T01:30:07.143Z,1021.49
2017-02-19T01:31:16.194Z,1021.4
2017-02-19T01:32:26.418Z,1021.45
2017-02-19T01:33:35.473Z,1021.42
2017-02-19T01:34:44.915Z,1021.43
2017-02-19T01:35:53.972Z,1021.38
2017-02-19T01:37:03.838Z,1021.42
2017-02-19T01:38:13.288Z,1021.46
2017-02-19T01:39:22.352Z,1021.4
2017-02-19T01:40:31.039Z,1021.41
2017-02-19T01:41:40.505Z,1021.36
2017-02-19T01:42:49.555Z,1021.32
2017-02-19T01:43:58.642Z,1021.32
2017-02-19T01:45:08.470Z,1021.28
2017-02-19T01:46:17.560Z,1021.22
2017-02-19T01:47:26.627Z,1021.25
2017-02-19T01:48:35.343Z,1021.26
2017-02-19T01:49:44.818Z,1021.25
2017-02-19T01:50:53.887Z,1021.24
2017-02-19T01:52:03.322Z,1021.19
2017-02-19T01:53:12.781Z,1021.2
2017-02-19T01:54:21.485Z,1021.16
2017-02-19T01:55:30.556Z,1021.11
2017-02-19T01:56:39.609Z,1021.08
2017-02-19T01:57:49.046Z,1021.11
2017-02-19T01:58:58.106Z,1021.11
2017-02-19T02:00:06.790Z,1021.1
2017-02-19T02:01:15.878Z,1021.13
2017-02-19T02:02:25.706Z,1021.16
2017-02-19T02:03:35.176Z,1021.13
2017-02-19T02:04:43.865Z,1021.08
2017-02-19T02:05:53.705Z,1021.08
2017-02-19T02:07:02.785Z,1021.05
2017-02-19T02:08:11.839Z,1021.08
2017-02-19T02:09:21.293Z,1021.03
2017-02-19T02:10:31.112Z,1020.99
2017-02-19T02:11:40.190Z,1020.98
2017-02-19T02:12:49.259Z,1020.9
2017-02-19T02:13:59.080Z,1020.91
2017-02-19T02:15:09.289Z,1020.86
2017-02-19T02:16:18.750Z,1020.82
2017-02-19T02:17:27.471Z,1020.87
2017-02-19T02:18:37.297Z,1020.85
2017-02-19T02:19:47.146Z,1020.88
2017-02-19T02:20:56.585Z,1020.93
2017-02-19T02:22:06.428Z,1020.99
2017-02-19T02:23:15.504Z,1021
2017-02-19T02:24:25.343Z,1020.99
2017-02-19T02:25:34.779Z,1020.97
2017-02-19T02:26:43.455Z,1020.91
2017-02-19T02:27:52.911Z,1020.86
2017-02-19T02:29:02.774Z,1020.87
2017-02-19T02:30:11.829Z,1020.83
2017-02-19T02:31:22.063Z,1020.81
2017-02-19T02:32:31.515Z,1020.77
2017-02-19T02:33:40.972Z,1020.78
2017-02-19T02:34:50.803Z,1020.77
2017-02-19T02:36:00.671Z,1020.76
2017-02-19T02:37:09.739Z,1020.73
2017-02-19T02:38:19.573Z,1020.69
2017-02-19T02:39:28.646Z,1020.7
2017-02-19T02:40:38.086Z,1020.65
2017-02-19T02:41:46.763Z,1020.6
2017-02-19T02:42:56.968Z,1020.59
2017-02-19T02:44:06.809Z,1020.57
2017-02-19T02:45:16.265Z,1020.59
2017-02-19T02:46:26.095Z,1020.56
2017-02-19T02:47:34.835Z,1020.61
2017-02-19T02:48:44.312Z,1020.58
2017-02-19T02:49:53.800Z,1020.57
2017-02-19T02:51:02.868Z,1020.55
2017-02-19T02:52:11.925Z,1020.47
2017-02-19T02:53:20.985Z,1020.47
2017-02-19T02:54:30.447Z,1020.46
2017-02-19T02:55:39.902Z,1020.47
2017-02-19T02:56:49.349Z,1020.42
2017-02-19T02:57:58.812Z,1020.45
2017-02-19T02:59:07.498Z,1020.48
2017-02-19T03:00:17.332Z,1020.5
2017-02-19T03:01:27.179Z,1020.54
2017-02-19T03:02:36.618Z,1020.49
2017-02-19T03:03:46.071Z,1020.47
2017-02-19T03:04:55.134Z,1020.44
2017-02-19T03:06:04.579Z,1020.45
2017-02-19T03:07:14.016Z,1020.46
2017-02-19T03:08:23.453Z,1020.49
2017-02-19T03:09:32.926Z,1020.45
2017-02-19T03:10:42.383Z,1020.43
2017-02-19T03:11:51.827Z,1020.4
2017-02-19T03:13:01.656Z,1020.44
2017-02-19T03:14:10.728Z,1020.47
2017-02-19T03:15:19.797Z,1020.45
2017-02-19T03:16:29.255Z,1020.45
2017-02-19T03:17:38.703Z,1020.46
2017-02-19T03:18:48.529Z,1020.45
2017-02-19T03:19:59.116Z,1020.45
2017-02-19T03:21:08.572Z,1020.43
2017-02-19T03:22:18.017Z,1020.43
2017-02-19T03:23:27.477Z,1020.42
2017-02-19T03:24:36.175Z,1020.45
2017-02-19T03:25:45.622Z,1020.4
2017-02-19T03:26:55.071Z,1020.44
2017-02-19T03:28:05.300Z,1020.37
2017-02-19T03:29:14.367Z,1020.36
2017-02-19T03:30:23.840Z,1020.35
2017-02-19T03:31:33.665Z,1020.28
2017-02-19T03:32:42.732Z,1020.31
2017-02-19T03:33:52.176Z,1020.35
2017-02-19T03:35:01.996Z,1020.36
2017-02-19T03:36:11.845Z,1020.35
2017-02-19T03:37:20.530Z,1020.26
2017-02-19T03:38:29.640Z,1020.26
2017-02-19T03:39:38.718Z,1020.3
2017-02-19T03:40:48.169Z,1020.28
2017-02-19T03:41:57.244Z,1020.31
2017-02-19T03:43:06.695Z,1020.28
2017-02-19T03:44:15.769Z,1020.28
2017-02-19T03:45:25.601Z,1020.3
2017-02-19T03:46:34.656Z,1020.27
2017-02-19T03:47:44.486Z,1020.29
2017-02-19T03:48:53.551Z,1020.25
2017-02-19T03:50:02.617Z,1020.26
2017-02-19T03:51:12.085Z,1020.28
2017-02-19T03:52:21.551Z,1020.3
2017-02-19T03:53:30.246Z,1020.29
2017-02-19T03:54:39.728Z,1020.25
2017-02-19T03:55:48.825Z,1020.27
2017-02-19T03:56:57.895Z,1020.25
2017-02-19T03:58:06.973Z,1020.27
2017-02-19T03:59:16.067Z,1020.24
2017-02-19T04:00:25.529Z,1020.23
2017-02-19T04:01:34.592Z,1020.22
2017-02-19T04:02:44.444Z,1020.16
2017-02-19T04:03:53.548Z,1020.22
2017-02-19T04:05:03.000Z,1020.23
2017-02-19T04:06:11.700Z,1020.16
2017-02-19T04:07:21.136Z,1020.19
2017-02-19T04:08:31.358Z,1020.15
2017-02-19T04:09:40.814Z,1020.19
2017-02-19T04:10:50.257Z,1020.15
2017-02-19T04:12:00.085Z,1020.14
2017-02-19T04:13:09.533Z,1020.16
2017-02-19T04:14:18.974Z,1020.18
2017-02-19T04:15:28.068Z,1020.16
2017-02-19T04:16:38.323Z,1020.19
2017-02-19T04:17:47.774Z,1020.21
2017-02-19T04:18:57.242Z,1020.17
2017-02-19T04:20:07.074Z,1020.15
2017-02-19T04:21:16.516Z,1020.17
2017-02-19T04:22:25.585Z,1020.18
2017-02-19T04:23:34.647Z,1020.15
2017-02-19T04:24:43.733Z,1020.13
2017-02-19T04:25:53.952Z,1020.07
2017-02-19T04:27:03.408Z,1020.09
2017-02-19T04:28:12.209Z,1020.06
2017-02-19T04:29:22.051Z,1020.09
2017-02-19T04:30:31.494Z,1020.12
2017-02-19T04:31:40.947Z,1020.14
2017-02-19T04:32:49.659Z,1020.16
2017-02-19T04:34:00.261Z,1020.19
2017-02-19T04:35:09.703Z,1020.23
2017-02-19T04:36:18.391Z,1020.24
2017-02-19T04:37:28.602Z,1020.26
2017-02-19T04:38:38.066Z,1020.24
2017-02-19T04:39:48.276Z,1020.19
2017-02-19T04:40:58.123Z,1020.24
2017-02-19T04:42:07.569Z,1020.22
2017-02-19T04:43:16.636Z,1020.22
2017-02-19T04:44:25.717Z,1020.26
2017-02-19T04:45:35.170Z,1020.19
2017-02-19T04:46:44.624Z,1020.24
2017-02-19T04:47:54.106Z,1020.21
2017-02-19T04:49:03.197Z,1020.23
2017-02-19T04:50:13.040Z,1020.2
2017-02-19T04:51:22.102Z,1020.16
2017-02-19T04:52:31.154Z,1020.19
2017-02-19T04:53:39.837Z,1020.13
2017-02-19T04:54:50.045Z,1020.09
2017-02-19T04:56:00.271Z,1020.11
2017-02-19T04:57:09.345Z,1020.09
2017-02-19T04:58:18.799Z,1020.01
2017-02-19T04:59:28.636Z,1019.95
2017-02-19T05:00:38.074Z,1019.88
2017-02-19T05:01:46.769Z,1019.84
2017-02-19T05:02:55.443Z,1019.79
2017-02-19T05:04:04.887Z,1019.8
2017-02-19T05:05:14.343Z,1019.75
2017-02-19T05:06:23.789Z,1019.76
2017-02-19T05:07:32.846Z,1019.75
2017-02-19T05:08:41.920Z,1019.74
2017-02-19T05:09:50.595Z,1019.78
2017-02-19T05:10:59.672Z,1019.82
2017-02-19T05:12:09.524Z,1019.87
2017-02-19T05:13:19.350Z,1019.8
2017-02-19T05:14:28.805Z,1019.76
2017-02-19T05:15:38.255Z,1019.78
2017-02-19T05:16:47.707Z,1019.8
2017-02-19T05:17:57.149Z,1019.83
2017-02-19T05:19:06.598Z,1019.8
2017-02-19T05:20:16.045Z,1019.84
2017-02-19T05:21:25.875Z,1019.8
2017-02-19T05:22:35.322Z,1019.76
2017-02-19T05:23:44.383Z,1019.79
2017-02-19T05:24:53.447Z,1019.75
2017-02-19T05:26:02.519Z,1019.71
2017-02-19T05:27:11.590Z,1019.71
2017-02-19T05:28:21.024Z,1019.63
2017-02-19T05:29:30.475Z,1019.65
2017-02-19T05:30:39.536Z,1019.67
2017-02-19T05:31:48.978Z,1019.61
2017-02-19T05:32:58.814Z,1019.62
2017-02-19T05:34:08.631Z,1019.6
2017-02-19T05:35:18.070Z,1019.53
2017-02-19T05:36:27.144Z,1019.55
2017-02-19T05:37:36.984Z,1019.49
2017-02-19T05:38:46.812Z,1019.47
2017-02-19T05:39:56.675Z,1019.46
2017-02-19T05:41:05.753Z,1019.39
2017-02-19T05:42:14.433Z,1019.44
2017-02-19T05:43:23.491Z,1019.44
2017-02-19T05:44:33.337Z,1019.39
2017-02-19T05:45:42.801Z,1019.38
2017-02-19T05:46:52.645Z,1019.41
2017-02-19T05:48:02.094Z,1019.42
2017-02-19T05:49:11.164Z,1019.44
2017-02-19T05:50:19.833Z,1019.45
2017-02-19T05:51:28.912Z,1019.41
2017-02-19T05:52:38.379Z,1019.34
2017-02-19T05:53:47.829Z,1019.34
2017-02-19T05:54:57.273Z,1019.27
2017-02-19T05:56:06.744Z,1019.26
2017-02-19T05:57:16.597Z,1019.27
2017-02-19T05:58:26.427Z,1019.29
2017-02-19T05:59:35.892Z,1019.35
2017-02-19T06:00:44.587Z,1019.32
2017-02-19T06:01:54.418Z,1019.3
2017-02-19T06:03:04.234Z,1019.31
2017-02-19T06:04:12.916Z,1019.26
2017-02-19T06:05:22.379Z,1019.27
2017-02-19T06:06:32.208Z,1019.3
2017-02-19T06:07:41.277Z,1019.17
2017-02-19T06:08:50.388Z,1019.21
2017-02-19T06:09:59.104Z,1019.14
2017-02-19T06:11:08.181Z,1019.16
2017-02-19T06:12:16.870Z,1019.17
2017-02-19T06:13:26.705Z,1019.13
2017-02-19T06:14:35.790Z,1019.06
2017-02-19T06:15:45.235Z,1019.07
2017-02-19T06:16:54.311Z,1019.12
2017-02-19T06:18:03.390Z,1019.12
2017-02-19T06:19:13.237Z,1019.12
2017-02-19T06:20:22.682Z,1019.16
2017-02-19T06:21:31.768Z,1019.14
2017-02-19T06:22:40.822Z,1019.11
2017-02-19T06:23:49.891Z,1019.12
2017-02-19T06:24:58.960Z,1019.12
2017-02-19T06:26:08.023Z,1019.13
2017-02-19T06:27:17.087Z,1019.18
2017-02-19T06:28:27.303Z,1019.17
2017-02-19T06:29:35.991Z,1019.17
2017-02-19T06:30:45.437Z,1019.18
2017-02-19T06:31:54.904Z,1019.23
2017-02-19T06:33:04.752Z,1019.27
2017-02-19T06:34:13.815Z,1019.31
2017-02-19T06:35:23.646Z,1019.24
2017-02-19T06:36:32.730Z,1019.2
2017-02-19T06:37:42.194Z,1019.3
2017-02-19T06:38:51.642Z,1019.26
2017-02-19T06:40:01.843Z,1019.27
2017-02-19T06:41:11.293Z,1019.29
2017-02-19T06:42:21.495Z,1019.36
2017-02-19T06:43:30.194Z,1019.34
2017-02-19T06:44:39.633Z,1019.34
2017-02-19T06:45:49.085Z,1019.32
2017-02-19T06:46:58.146Z,1019.33
2017-02-19T06:48:07.601Z,1019.34
2017-02-19T06:49:17.055Z,1019.34
2017-02-19T06:50:26.135Z,1019.35
2017-02-19T06:51:35.625Z,1019.41
2017-02-19T06:52:44.678Z,1019.47
2017-02-19T06:53:53.744Z,1019.45
2017-02-19T06:55:02.816Z,1019.47
2017-02-19T06:56:11.890Z,1019.49
2017-02-19T06:57:20.950Z,1019.45
2017-02-19T06:58:30.779Z,1019.48
2017-02-19T06:59:39.838Z,1019.45
2017-02-19T07:00:48.530Z,1019.5
2017-02-19T07:01:57.971Z,1019.49
2017-02-19T07:03:07.790Z,1019.51
2017-02-19T07:04:17.274Z,1019.51
2017-02-19T07:05:25.962Z,1019.45
2017-02-19T07:06:35.802Z,1019.44
2017-02-19T07:07:45.241Z,1019.38
2017-02-19T07:08:54.333Z,1019.43
2017-02-19T07:10:03.791Z,1019.4
2017-02-19T07:11:12.860Z,1019.38
2017-02-19T07:12:22.334Z,1019.47
2017-02-19T07:13:31.404Z,1019.4
2017-02-19T07:14:40.876Z,1019.41
2017-02-19T07:15:50.313Z,1019.41
2017-02-19T07:16:59.005Z,1019.43
2017-02-19T07:18:08.459Z,1019.45
2017-02-19T07:19:17.896Z,1019.48
2017-02-19T07:20:26.595Z,1019.44
2017-02-19T07:21:36.037Z,1019.45
2017-02-19T07:22:45.499Z,1019.4
2017-02-19T07:23:54.947Z,1019.43
2017-02-19T07:25:04.387Z,1019.48
2017-02-19T07:26:13.839Z,1019.44
2017-02-19T07:27:23.294Z,1019.43
2017-02-19T07:28:32.765Z,1019.46
2017-02-19T07:29:42.586Z,1019.5
2017-02-19T07:30:52.438Z,1019.5
2017-02-19T07:32:01.504Z,1019.53
2017-02-19T07:33:10.948Z,1019.53
2017-02-19T07:34:20.391Z,1019.63
2017-02-19T07:35:29.840Z,1019.59
2017-02-19T07:36:40.092Z,1019.54
2017-02-19T07:37:49.549Z,1019.59
2017-02-19T07:38:59.371Z,1019.54
2017-02-19T07:40:08.845Z,1019.51
2017-02-19T07:41:18.304Z,1019.57
2017-02-19T07:42:26.990Z,1019.64
2017-02-19T07:43:36.053Z,1019.55
2017-02-19T07:44:45.890Z,1019.6
2017-02-19T07:45:55.348Z,1019.61
2017-02-19T07:47:04.435Z,1019.62
2017-02-19T07:48:13.528Z,1019.51
2017-02-19T07:49:22.975Z,1019.49
2017-02-19T07:50:31.660Z,1019.43
2017-02-19T07:51:40.730Z,1019.37
2017-02-19T07:52:50.203Z,1019.41
2017-02-19T07:53:59.275Z,1019.4
2017-02-19T07:55:09.098Z,1019.4
2017-02-19T07:56:18.557Z,1019.44
2017-02-19T07:57:28.025Z,1019.44
2017-02-19T07:58:37.075Z,1019.47
2017-02-19T07:59:46.135Z,1019.45
2017-02-19T08:00:54.829Z,1019.47
2017-02-19T08:02:03.891Z,1019.49
2017-02-19T08:03:13.338Z,1019.42
2017-02-19T08:04:22.405Z,1019.4
2017-02-19T08:05:31.482Z,1019.4
2017-02-19T08:06:40.957Z,1019.34
2017-02-19T08:07:50.408Z,1019.3
2017-02-19T08:08:59.847Z,1019.34
2017-02-19T08:10:09.289Z,1019.3
2017-02-19T08:11:18.762Z,1019.31
2017-02-19T08:12:28.615Z,1019.35
2017-02-19T08:13:38.070Z,1019.37
2017-02-19T08:14:47.520Z,1019.39
2017-02-19T08:15:56.226Z,1019.33
2017-02-19T08:17:05.681Z,1019.32
2017-02-19T08:18:15.140Z,1019.21
2017-02-19T08:19:23.836Z,1019.18
2017-02-19T08:20:33.679Z,1019.25
2017-02-19T08:21:43.123Z,1019.28
2017-02-19T08:22:52.952Z,1019.32
2017-02-19T08:24:02.394Z,1019.32
2017-02-19T08:25:11.488Z,1019.4
2017-02-19T08:26:20.565Z,1019.4
2017-02-19T08:27:30.050Z,1019.44
2017-02-19T08:28:39.131Z,1019.44
2017-02-19T08:29:49.350Z,1019.45
2017-02-19T08:30:59.615Z,1019.47
2017-02-19T08:32:08.667Z,1019.46
2017-02-19T08:33:18.108Z,1019.41
2017-02-19T08:34:28.326Z,1019.45
2017-02-19T08:35:37.793Z,1019.48
2017-02-19T08:36:47.239Z,1019.4
2017-02-19T08:37:56.303Z,1019.4
2017-02-19T08:39:05.752Z,1019.48
2017-02-19T08:40:15.206Z,1019.47
2017-02-19T08:41:24.284Z,1019.46
2017-02-19T08:42:33.754Z,1019.38
2017-02-19T08:43:42.456Z,1019.4
2017-02-19T08:44:51.927Z,1019.38
2017-02-19T08:46:01.766Z,1019.38
2017-02-19T08:47:10.828Z,1019.39
2017-02-19T08:48:20.658Z,1019.34
2017-02-19T08:49:30.126Z,1019.42
2017-02-19T08:50:39.958Z,1019.45
2017-02-19T08:51:49.419Z,1019.42
2017-02-19T08:52:58.885Z,1019.4
2017-02-19T08:54:09.105Z,1019.38
2017-02-19T08:55:18.560Z,1019.4
2017-02-19T08:56:28.017Z,1019.35
2017-02-19T08:57:37.084Z,1019.33
2017-02-19T08:58:46.143Z,1019.3
2017-02-19T08:59:55.626Z,1019.28
2017-02-19T09:01:05.462Z,1019.32
2017-02-19T09:02:14.540Z,1019.32
2017-02-19T09:03:24.383Z,1019.4
2017-02-19T09:04:33.069Z,1019.28
2017-02-19T09:05:42.573Z,1019.29
2017-02-19T09:06:51.655Z,1019.26
2017-02-19T09:08:01.136Z,1019.22
2017-02-19T09:09:10.620Z,1019.2
2017-02-19T09:10:20.874Z,1019.23
2017-02-19T09:11:29.985Z,1019.26
2017-02-19T09:12:39.835Z,1019.23
2017-02-19T09:13:48.550Z,1019.23
2017-02-19T09:14:58.751Z,1019.24
2017-02-19T09:16:08.211Z,1019.27
2017-02-19T09:17:17.658Z,1019.32
2017-02-19T09:18:27.125Z,1019.24
2017-02-19T09:19:36.204Z,1019.31
2017-02-19T09:20:46.050Z,1019.3
2017-02-19T09:21:54.735Z,1019.27
2017-02-19T09:23:04.184Z,1019.35
2017-02-19T09:24:13.247Z,1019.37
2017-02-19T09:25:23.439Z,1019.38
2017-02-19T09:26:32.903Z,1019.3
2017-02-19T09:27:41.593Z,1019.35
2017-02-19T09:28:50.706Z,1019.38
2017-02-19T09:30:00.168Z,1019.4
2017-02-19T09:31:09.666Z,1019.42
2017-02-19T09:32:19.121Z,1019.39
2017-02-19T09:33:28.231Z,1019.36
2017-02-19T09:34:37.701Z,1019.37
2017-02-19T09:35:47.522Z,1019.36
2017-02-19T09:36:56.973Z,1019.37
2017-02-19T09:38:06.435Z,1019.34
2017-02-19T09:39:15.544Z,1019.3
2017-02-19T09:40:25.011Z,1019.32
2017-02-19T09:41:35.262Z,1019.27
2017-02-19T09:42:44.002Z,1019.3
2017-02-19T09:43:53.072Z,1019.28
2017-02-19T09:45:02.151Z,1019.29
2017-02-19T09:46:11.982Z,1019.17
2017-02-19T09:47:21.811Z,1019.09
2017-02-19T09:48:31.266Z,1019.17
2017-02-19T09:49:41.104Z,1019.1
2017-02-19T09:50:50.972Z,1019.12
2017-02-19T09:52:00.045Z,1019.16
2017-02-19T09:53:09.497Z,1019.06
2017-02-19T09:54:18.966Z,1019.02
2017-02-19T09:55:27.684Z,1018.97
2017-02-19T09:56:37.147Z,1019.06
2017-02-19T09:57:46.986Z,1019.03
2017-02-19T09:58:56.052Z,1019.05
2017-02-19T10:00:06.266Z,1019.04
2017-02-19T10:01:15.718Z,1019.03
2017-02-19T10:02:25.926Z,1019.02
2017-02-19T10:03:35.420Z,1019.07
2017-02-19T10:04:44.504Z,1019.07
2017-02-19T10:05:53.563Z,1019.06
2017-02-19T10:07:03.025Z,1019.02
2017-02-19T10:08:12.499Z,1018.92
2017-02-19T10:09:21.575Z,1018.99
2017-02-19T10:10:31.788Z,1018.94
2017-02-19T10:11:40.843Z,1018.97
2017-02-19T10:12:50.305Z,1018.94
2017-02-19T10:13:59.367Z,1019.01
2017-02-19T10:15:08.824Z,1018.98
2017-02-19T10:16:19.030Z,1018.97
2017-02-19T10:17:28.101Z,1018.97
2017-02-19T10:18:37.551Z,1018.94
2017-02-19T10:19:47.785Z,1019.01
2017-02-19T10:20:57.626Z,1019.08
2017-02-19T10:22:06.688Z,1019.01
2017-02-19T10:23:15.380Z,1019.04
2017-02-19T10:24:25.220Z,1018.95
2017-02-19T10:25:34.675Z,1018.92
2017-02-19T10:26:43.730Z,1018.94
2017-02-19T10:27:53.559Z,1018.91
2017-02-19T10:29:02.633Z,1018.93
2017-02-19T10:30:12.489Z,1018.92
2017-02-19T10:31:21.972Z,1018.9
2017-02-19T10:32:31.412Z,1018.88
2017-02-19T10:33:40.871Z,1018.81
2017-02-19T10:34:50.314Z,1018.85
2017-02-19T10:36:00.147Z,1018.84
2017-02-19T10:37:09.982Z,1018.82
2017-02-19T10:38:18.677Z,1018.83
2017-02-19T10:39:28.523Z,1018.83
2017-02-19T10:40:37.589Z,1018.78
2017-02-19T10:41:47.413Z,1018.83
2017-02-19T10:42:56.492Z,1018.81
2017-02-19T10:44:06.325Z,1018.77
2017-02-19T10:45:15.443Z,1018.82
2017-02-19T10:46:24.497Z,1018.85
2017-02-19T10:47:33.950Z,1018.81
2017-02-19T10:48:43.397Z,1018.85
2017-02-19T10:49:52.460Z,1018.84
2017-02-19T10:51:01.524Z,1018.86
2017-02-19T10:52:11.741Z,1018.87
2017-02-19T10:53:20.797Z,1018.76
2017-02-19T10:54:31.011Z,1018.82
2017-02-19T10:55:40.471Z,1018.77
2017-02-19T10:56:50.296Z,1018.74
2017-02-19T10:57:59.755Z,1018.74
2017-02-19T10:59:09.210Z,1018.76
2017-02-19T11:00:18.292Z,1018.72
2017-02-19T11:01:27.359Z,1018.73
2017-02-19T11:02:36.830Z,1018.72
2017-02-19T11:03:45.900Z,1018.74
2017-02-19T11:04:55.350Z,1018.74
2017-02-19T11:06:05.188Z,1018.7
2017-02-19T11:07:14.305Z,1018.66
2017-02-19T11:08:23.386Z,1018.7
2017-02-19T11:09:32.078Z,1018.72
2017-02-19T11:10:40.786Z,1018.69
2017-02-19T11:11:50.240Z,1018.7
2017-02-19T11:12:59.311Z,1018.7
2017-02-19T11:14:08.770Z,1018.7
2017-02-19T11:15:17.831Z,1018.72
2017-02-19T11:16:26.914Z,1018.71
2017-02-19T11:17:35.996Z,1018.72
2017-02-19T11:18:45.056Z,1018.7
2017-02-19T11:19:53.752Z,1018.73
2017-02-19T11:21:03.210Z,1018.72
2017-02-19T11:22:12.659Z,1018.67
2017-02-19T11:23:22.515Z,1018.73
2017-02-19T11:24:31.971Z,1018.67
2017-02-19T11:25:41.044Z,1018.65
2017-02-19T11:26:50.491Z,1018.68
2017-02-19T11:27:59.965Z,1018.67
2017-02-19T11:29:09.420Z,1018.71
2017-02-19T11:30:18.884Z,1018.67
2017-02-19T11:31:28.345Z,1018.73
2017-02-19T11:32:38.169Z,1018.76
2017-02-19T11:33:48.005Z,1018.68
2017-02-19T11:34:56.711Z,1018.68
2017-02-19T11:36:06.579Z,1018.69
2017-02-19T11:37:15.661Z,1018.69
2017-02-19T11:38:25.120Z,1018.66
2017-02-19T11:39:34.963Z,1018.67
2017-02-19T11:40:44.411Z,1018.7
2017-02-19T11:41:53.868Z,1018.6
2017-02-19T11:43:03.702Z,1018.62
2017-02-19T11:44:12.787Z,1018.59
2017-02-19T11:45:21.884Z,1018.59
2017-02-19T11:46:31.354Z,1018.58
2017-02-19T11:47:40.047Z,1018.53
2017-02-19T11:48:49.122Z,1018.51
2017-02-19T11:49:58.955Z,1018.54
2017-02-19T11:51:08.417Z,1018.52
2017-02-19T11:52:17.501Z,1018.53
2017-02-19T11:53:26.584Z,1018.54
2017-02-19T11:54:36.439Z,1018.56
2017-02-19T11:55:45.886Z,1018.54
2017-02-19T11:56:54.978Z,1018.56
2017-02-19T11:58:04.047Z,1018.54
2017-02-19T11:59:13.122Z,1018.5
2017-02-19T12:00:22.213Z,1018.44
2017-02-19T12:01:32.069Z,1018.44
2017-02-19T12:02:41.917Z,1018.46
2017-02-19T12:03:50.988Z,1018.39
2017-02-19T12:05:00.850Z,1018.39
2017-02-19T12:06:09.931Z,1018.43
2017-02-19T12:07:18.999Z,1018.41
2017-02-19T12:08:28.482Z,1018.34
2017-02-19T12:09:37.954Z,1018.36
2017-02-19T12:10:47.799Z,1018.33
2017-02-19T12:11:57.634Z,1018.35
2017-02-19T12:13:07.080Z,1018.29
2017-02-19T12:14:16.530Z,1018.32
2017-02-19T12:15:25.229Z,1018.33
2017-02-19T12:16:35.050Z,1018.27
2017-02-19T12:17:44.137Z,1018.29
2017-02-19T12:18:52.821Z,1018.26
2017-02-19T12:20:01.512Z,1018.3
2017-02-19T12:21:10.962Z,1018.3
2017-02-19T12:22:20.788Z,1018.27
2017-02-19T12:23:30.236Z,1018.26
2017-02-19T12:24:39.312Z,1018.28
2017-02-19T12:25:48.414Z,1018.27
2017-02-19T12:26:57.871Z,1018.29
2017-02-19T12:28:06.576Z,1018.25
2017-02-19T12:29:15.262Z,1018.27
2017-02-19T12:30:24.704Z,1018.24
2017-02-19T12:31:34.531Z,1018.21
2017-02-19T12:32:43.598Z,1018.23
2017-02-19T12:33:52.291Z,1018.22
2017-02-19T12:35:02.132Z,1018.2
2017-02-19T12:36:11.245Z,1018.19
2017-02-19T12:37:19.948Z,1018.19
2017-02-19T12:38:29.050Z,1018.18
2017-02-19T12:39:38.523Z,1018.18
2017-02-19T12:40:48.357Z,1018.16
2017-02-19T12:41:57.804Z,1018.15
2017-02-19T12:43:07.636Z,1018.11
2017-02-19T12:44:17.082Z,1018.1
2017-02-19T12:45:26.196Z,1018.14
2017-02-19T12:46:35.634Z,1018.09
2017-02-19T12:47:45.480Z,1018.07
2017-02-19T12:48:55.705Z,1018.09
2017-02-19T12:50:05.558Z,1018.06
2017-02-19T12:51:15.388Z,1018.09
2017-02-19T12:52:24.860Z,1018.08
2017-02-19T12:53:34.331Z,1018.03
2017-02-19T12:54:43.040Z,1018.03
2017-02-19T12:55:52.911Z,1017.99
2017-02-19T12:57:02.361Z,1018.04
2017-02-19T12:58:11.079Z,1017.98
2017-02-19T12:59:20.946Z,1018.04
2017-02-19T13:00:30.774Z,1018.05
2017-02-19T13:01:39.865Z,1018.07
2017-02-19T13:02:49.304Z,1017.99
2017-02-19T13:03:58.760Z,1017.96
2017-02-19T13:05:08.214Z,1017.97
2017-02-19T13:06:18.069Z,1017.94
2017-02-19T13:07:27.528Z,1017.97
2017-02-19T13:08:36.590Z,1017.97
2017-02-19T13:09:45.696Z,1018.03
2017-02-19T13:10:54.770Z,1017.99
2017-02-19T13:12:04.212Z,1018.02
2017-02-19T13:13:12.912Z,1017.95
2017-02-19T13:14:22.368Z,1017.99
2017-02-19T13:15:31.449Z,1017.94
2017-02-19T13:16:40.910Z,1017.91
2017-02-19T13:17:50.743Z,1017.98
2017-02-19T13:19:00.203Z,1017.99
2017-02-19T13:20:09.667Z,1017.99
2017-02-19T13:21:18.736Z,1017.98
2017-02-19T13:22:27.462Z,1017.96
2017-02-19T13:23:36.925Z,1018
2017-02-19T13:24:45.628Z,1017.93
2017-02-19T13:25:55.491Z,1017.9
2017-02-19T13:27:05.332Z,1017.88
2017-02-19T13:28:14.409Z,1017.92
2017-02-19T13:29:23.496Z,1017.9
2017-02-19T13:30:32.947Z,1017.87
2017-02-19T13:31:42.417Z,1017.85
2017-02-19T13:32:51.100Z,1017.88
2017-02-19T13:34:00.167Z,1017.85
2017-02-19T13:35:09.226Z,1017.88
2017-02-19T13:36:18.686Z,1017.79
2017-02-19T13:37:28.527Z,1017.85
2017-02-19T13:38:37.205Z,1017.81
2017-02-19T13:39:46.272Z,1017.82
2017-02-19T13:40:55.745Z,1017.83
2017-02-19T13:42:04.841Z,1017.82
2017-02-19T13:43:13.536Z,1017.81
2017-02-19T13:44:22.214Z,1017.77
2017-02-19T13:45:30.902Z,1017.76
2017-02-19T13:46:40.352Z,1017.76
2017-02-19T13:47:49.430Z,1017.81
2017-02-19T13:48:58.892Z,1017.81
2017-02-19T13:50:07.978Z,1017.77
2017-02-19T13:51:18.203Z,1017.74
2017-02-19T13:52:28.109Z,1017.74
2017-02-19T13:53:37.557Z,1017.82
2017-02-19T13:54:47.018Z,1017.78
2017-02-19T13:55:56.865Z,1017.76
2017-02-19T13:57:05.963Z,1017.78
2017-02-19T13:58:15.416Z,1017.77
2017-02-19T13:59:24.497Z,1017.7
2017-02-19T14:00:34.381Z,1017.74
2017-02-19T14:01:43.461Z,1017.73
2017-02-19T14:02:53.291Z,1017.71